createdAt,value
2022-12-05T00:01:36.437Z,73.46
2022-12-05T00:03:38.124Z,73.87
2022-12-05T00:05:40.962Z,73.81
2022-12-05T00:07:42.696Z,73.50
2022-12-05T00:09:44.447Z,73.82
2022-12-05T00:11:46.301Z,73.68
2022-12-05T00:13:48.795Z,73.69
2022-12-05T00:15:50.524Z,73.82
2022-12-05T00:17:52.197Z,73.84
2022-12-05T00:19:56.877Z,73.63
2022-12-05T00:21:58.880Z,73.36
2022-12-05T00:24:01.828Z,73.40
2022-12-05T00:26:04.921Z,73.16
2022-12-05T00:28:06.551Z,73.35
2022-12-05T00:30:08.609Z,73.43
2022-12-05T00:32:10.329Z,73.34
2022-12-05T00:34:12.007Z,73.52
2022-12-05T00:36:16.304Z,73.34
2022-12-05T00:38:17.951Z,73.41
2022-12-05T00:40:19.835Z,73.48
2022-12-05T00:42:21.499Z,73.27
2022-12-05T00:44:23.146Z,73.45
2022-12-05T00:46:27.323Z,73.60
2022-12-05T00:48:29.580Z,73.27
2022-12-05T00:50:31.322Z,73.07
2022-12-05T00:52:32.980Z,73.44
2022-12-05T00:54:34.748Z,73.47
2022-12-05T00:56:36.794Z,73.60
2022-12-05T00:58:39.008Z,73.38
2022-12-05T01:00:40.708Z,73.55
2022-12-05T01:02:42.440Z,73.47
2022-12-05T01:04:44.134Z,73.35
2022-12-05T01:06:46.163Z,74.05
2022-12-05T01:08:48.045Z,73.99
2022-12-05T01:10:54.845Z,73.64
2022-12-05T01:12:56.653Z,74.39
2022-12-05T01:14:58.206Z,74.44
2022-12-05T01:16:59.925Z,74.05
2022-12-05T01:19:05.015Z,73.50
2022-12-05T01:21:06.990Z,73.79
2022-12-05T01:23:09.397Z,73.92
2022-12-05T01:25:10.985Z,74.08
2022-12-05T01:27:12.702Z,74.01
2022-12-05T01:29:16.795Z,73.68
2022-12-05T01:31:29.374Z,73.62
2022-12-05T01:33:31.158Z,73.60
2022-12-05T01:35:33.918Z,73.75
2022-12-05T01:37:35.745Z,73.87
2022-12-05T01:39:37.280Z,73.54
2022-12-05T01:41:45.520Z,74.02
2022-12-05T01:43:58.313Z,74.01
2022-12-05T01:46:00.113Z,73.94
2022-12-05T01:48:05.821Z,74.05
2022-12-05T01:50:08.231Z,74.13
2022-12-05T01:52:15.816Z,74.17
2022-12-05T01:54:18.888Z,74.79
2022-12-05T01:56:20.789Z,74.84
2022-12-05T01:58:25.208Z,74.75
2022-12-05T02:00:26.868Z,74.48
2022-12-05T02:02:29.944Z,74.48
2022-12-05T02:04:36.704Z,74.61
2022-12-05T02:06:38.411Z,74.66
2022-12-05T02:08:40.678Z,74.69
2022-12-05T02:10:54.216Z,74.92
2022-12-05T02:13:02.997Z,74.98
2022-12-05T02:15:10.606Z,74.99
2022-12-05T02:17:31.654Z,75.45
2022-12-05T02:20:12.766Z,75.01
2022-12-05T02:22:33.201Z,74.80
2022-12-05T02:25:07.795Z,75.04
2022-12-05T02:27:49.518Z,75.32
2022-12-05T02:30:00.651Z,75.49
2022-12-05T02:32:16.688Z,75.40
2022-12-05T02:34:31.287Z,75.50
2022-12-05T02:36:41.538Z,75.17
2022-12-05T02:39:11.881Z,74.94
2022-12-05T02:41:37.513Z,75.13
2022-12-05T02:43:45.151Z,74.67
2022-12-05T02:45:51.266Z,74.98
2022-12-05T02:47:54.803Z,74.93
2022-12-05T02:49:57.005Z,75.04
2022-12-05T02:52:00.277Z,74.69
2022-12-05T02:54:06.471Z,74.29
2022-12-05T02:56:08.320Z,74.48
2022-12-05T02:58:15.071Z,74.59
2022-12-05T03:00:17.121Z,74.54
2022-12-05T03:02:31.925Z,74.33
2022-12-05T03:04:33.602Z,74.25
2022-12-05T03:06:39.974Z,74.14
2022-12-05T03:09:12.041Z,74.31
2022-12-05T03:11:13.858Z,74.04
2022-12-05T03:13:20.676Z,74.18
2022-12-05T03:15:28.354Z,74.51
2022-12-05T03:17:33.359Z,74.26
2022-12-05T03:19:34.965Z,74.35
2022-12-05T03:21:47.857Z,74.05
2022-12-05T03:23:57.107Z,74.30
2022-12-05T03:26:25.064Z,74.30
2022-12-05T03:28:31.031Z,74.45
2022-12-05T03:30:36.239Z,74.58
2022-12-05T03:33:09.992Z,74.56
2022-12-05T03:35:49.856Z,74.91
2022-12-05T03:37:58.434Z,76.13
2022-12-05T03:40:09.087Z,76.44
2022-12-05T03:42:15.742Z,76.06
2022-12-05T03:44:35.687Z,76.96
2022-12-05T03:46:43.164Z,76.93
2022-12-05T03:48:56.018Z,76.61
2022-12-05T03:50:58.605Z,76.24
2022-12-05T03:53:20.608Z,75.67
2022-12-05T03:55:23.831Z,75.43
2022-12-05T03:57:29.543Z,75.15
2022-12-05T03:59:46.428Z,74.38
2022-12-05T04:01:48.880Z,74.76
2022-12-05T04:03:55.247Z,74.96
2022-12-05T04:05:59.784Z,74.80
2022-12-05T04:08:16.710Z,74.74
2022-12-05T04:10:25.315Z,74.79
2022-12-05T04:12:29.798Z,74.59
2022-12-05T04:14:44.597Z,74.32
2022-12-05T04:17:03.482Z,74.53
2022-12-05T04:19:05.104Z,74.55
2022-12-05T04:21:25.244Z,74.22
2022-12-05T04:23:27.954Z,74.45
2022-12-05T04:25:40.631Z,73.76
2022-12-05T04:27:51.503Z,73.81
2022-12-05T04:30:04.918Z,73.62
2022-12-05T04:32:08.826Z,73.85
2022-12-05T04:34:11.213Z,73.70
2022-12-05T04:36:16.893Z,73.54
2022-12-05T04:38:28.622Z,73.82
2022-12-05T04:40:35.726Z,73.92
2022-12-05T04:42:39.084Z,73.82
2022-12-05T04:44:44.929Z,73.40
2022-12-05T04:46:47.211Z,74.01
2022-12-05T04:49:01.106Z,73.78
2022-12-05T04:51:04.459Z,73.32
2022-12-05T04:53:06.908Z,73.66
2022-12-05T04:55:25.789Z,73.48
2022-12-05T04:57:37.701Z,73.22
2022-12-05T04:59:39.282Z,73.23
2022-12-05T05:01:53.528Z,73.40
2022-12-05T05:03:56.754Z,73.27
2022-12-05T05:05:58.722Z,72.95
2022-12-05T05:08:00.428Z,73.16
2022-12-05T05:10:02.131Z,73.24
2022-12-05T05:12:04.400Z,73.55
2022-12-05T05:14:06.119Z,73.13
2022-12-05T05:16:08.472Z,73.21
2022-12-05T05:18:10.240Z,73.55
2022-12-05T05:20:23.974Z,73.64
2022-12-05T05:22:25.590Z,73.72
2022-12-05T05:24:27.196Z,73.73
2022-12-05T05:26:29.991Z,73.54
2022-12-05T05:28:31.632Z,73.62
2022-12-05T05:30:33.296Z,73.64
2022-12-05T05:32:35.438Z,73.48
2022-12-05T05:34:37.222Z,73.52
2022-12-05T05:36:39.362Z,73.60
2022-12-05T05:38:49.699Z,73.45
2022-12-05T05:40:51.286Z,73.43
2022-12-05T05:42:52.943Z,73.27
2022-12-05T05:44:54.709Z,73.60
2022-12-05T05:46:56.403Z,73.27
2022-12-05T05:48:58.275Z,73.17
2022-12-05T05:51:01.205Z,73.50
2022-12-05T05:53:02.819Z,72.80
2022-12-05T05:55:05.690Z,73.49
2022-12-05T05:57:07.624Z,73.33
2022-12-05T05:59:09.737Z,73.35
2022-12-05T06:01:12.802Z,72.63
2022-12-05T06:03:14.864Z,72.89
2022-12-05T06:05:16.541Z,72.97
2022-12-05T06:07:18.097Z,72.71
2022-12-05T06:09:20.328Z,72.43
2022-12-05T06:11:26.134Z,72.43
2022-12-05T06:13:28.073Z,72.33
2022-12-05T06:15:29.778Z,72.77
2022-12-05T06:17:31.427Z,72.56
2022-12-05T06:19:33.096Z,72.62
2022-12-05T06:21:35.001Z,72.51
2022-12-05T06:23:37.853Z,72.46
2022-12-05T06:25:39.447Z,72.67
2022-12-05T06:27:41.161Z,72.05
2022-12-05T06:29:42.844Z,72.58
2022-12-05T06:31:44.440Z,72.59
2022-12-05T06:33:46.208Z,72.39
2022-12-05T06:35:48.046Z,72.38
2022-12-05T06:37:49.658Z,72.75
2022-12-05T06:39:52.262Z,72.18
2022-12-05T06:41:53.848Z,72.30
2022-12-05T06:44:01.500Z,72.38
2022-12-05T06:46:08.572Z,72.24
2022-12-05T06:48:10.218Z,72.79
2022-12-05T06:50:12.039Z,72.69
2022-12-05T06:52:13.598Z,72.35
2022-12-05T06:54:15.196Z,72.29
2022-12-05T06:56:19.752Z,72.09
2022-12-05T06:58:21.462Z,72.60
2022-12-05T07:00:41.721Z,72.83
2022-12-05T07:02:43.649Z,72.52
2022-12-05T07:04:45.604Z,72.43
2022-12-05T07:06:51.149Z,72.73
2022-12-05T07:08:53.017Z,72.63
2022-12-05T07:10:54.687Z,72.45
2022-12-05T07:12:56.602Z,71.90
2022-12-05T07:14:58.282Z,71.64
2022-12-05T07:17:00.203Z,72.32
2022-12-05T07:19:03.496Z,72.09
2022-12-05T07:21:12.260Z,71.73
2022-12-05T07:23:14.691Z,71.67
2022-12-05T07:25:16.988Z,71.48
2022-12-05T07:27:25.072Z,72.04
2022-12-05T07:29:28.820Z,71.49
2022-12-05T07:31:30.559Z,71.43
2022-12-05T07:33:32.526Z,71.12
2022-12-05T07:35:34.217Z,71.29
2022-12-05T07:37:35.803Z,72.13
2022-12-05T07:39:37.472Z,72.21
2022-12-05T07:41:39.201Z,71.92
2022-12-05T07:43:42.075Z,72.12
2022-12-05T07:45:43.802Z,71.70
2022-12-05T07:47:45.566Z,72.04
2022-12-05T07:49:47.195Z,72.05
2022-12-05T07:51:48.883Z,71.53
2022-12-05T07:53:50.643Z,71.78
2022-12-05T07:55:52.200Z,71.65
2022-12-05T07:57:53.906Z,71.59
2022-12-05T07:59:55.730Z,71.61
2022-12-05T08:01:57.597Z,71.94
2022-12-05T08:04:00.009Z,72.07
2022-12-05T08:06:03.659Z,71.82
2022-12-05T08:08:05.766Z,71.41
2022-12-05T08:10:08.293Z,71.60
2022-12-05T08:12:09.934Z,71.89
2022-12-05T08:14:11.994Z,72.40
2022-12-05T08:16:16.335Z,72.06
2022-12-05T08:18:18.794Z,72.42
2022-12-05T08:20:22.551Z,72.01
2022-12-05T08:22:24.192Z,71.57
2022-12-05T08:24:25.928Z,72.19
2022-12-05T08:26:29.889Z,72.51
2022-12-05T08:28:31.634Z,72.68
2022-12-05T08:30:33.984Z,72.71
2022-12-05T08:32:35.730Z,72.85
2022-12-05T08:34:37.384Z,72.66
2022-12-05T08:36:39.131Z,72.75
2022-12-05T08:38:41.566Z,73.10
2022-12-05T08:40:43.192Z,72.79
2022-12-05T08:42:45.068Z,72.36
2022-12-05T08:44:46.748Z,72.52
2022-12-05T08:46:50.204Z,72.54
2022-12-05T08:48:52.045Z,72.96
2022-12-05T08:50:53.929Z,72.72
2022-12-05T08:52:55.484Z,72.23
2022-12-05T08:54:57.424Z,72.01
2022-12-05T08:56:59.791Z,71.81
2022-12-05T08:59:06.165Z,71.16
2022-12-05T09:01:12.283Z,70.60
2022-12-05T09:03:13.915Z,70.25
2022-12-05T09:05:27.630Z,71.32
2022-12-05T09:07:30.715Z,70.32
2022-12-05T09:09:33.715Z,70.45
2022-12-05T09:11:38.209Z,69.98
2022-12-05T09:13:40.130Z,70.20
2022-12-05T09:15:41.768Z,70.07
2022-12-05T09:17:43.921Z,69.01
2022-12-05T09:19:46.557Z,69.46
2022-12-05T09:21:48.220Z,69.93
2022-12-05T09:23:50.696Z,69.24
2022-12-05T09:26:01.581Z,69.42
2022-12-05T09:28:03.381Z,69.36
2022-12-05T09:30:08.054Z,68.91
2022-12-05T09:32:10.335Z,68.59
2022-12-05T09:34:14.143Z,68.76
2022-12-05T09:36:17.275Z,68.63
2022-12-05T09:38:19.041Z,69.15
2022-12-05T09:40:20.891Z,68.75
2022-12-05T09:42:30.375Z,68.59
2022-12-05T09:45:00.127Z,68.75
2022-12-05T09:47:12.346Z,68.15
2022-12-05T09:49:13.960Z,68.40
2022-12-05T09:51:15.886Z,68.16
2022-12-05T09:53:30.803Z,68.25
2022-12-05T09:55:55.514Z,68.21
2022-12-05T09:57:58.218Z,68.75
2022-12-05T10:00:00.984Z,67.92
2022-12-05T10:02:17.967Z,68.06
2022-12-05T10:04:31.785Z,68.29
2022-12-05T10:06:57.212Z,68.31
2022-12-05T10:08:59.002Z,68.17
2022-12-05T10:11:03.878Z,67.72
2022-12-05T10:13:31.718Z,68.23
2022-12-05T10:15:39.235Z,67.53
2022-12-05T10:18:10.131Z,67.43
2022-12-05T10:20:16.531Z,67.99
2022-12-05T10:22:44.300Z,68.53
2022-12-05T10:24:52.256Z,68.68
2022-12-05T10:27:00.613Z,68.60
2022-12-05T10:29:17.324Z,69.08
2022-12-05T10:31:24.661Z,68.66
2022-12-05T10:33:29.354Z,68.91
2022-12-05T10:35:37.399Z,68.50
2022-12-05T10:37:39.088Z,69.11
2022-12-05T10:39:40.904Z,68.38
2022-12-05T10:41:42.556Z,68.69
2022-12-05T10:43:45.582Z,69.75
2022-12-05T10:45:48.064Z,69.22
2022-12-05T10:47:53.704Z,68.88
2022-12-05T10:49:58.879Z,69.07
2022-12-05T10:52:00.915Z,68.80
2022-12-05T10:54:03.166Z,69.54
2022-12-05T10:56:37.380Z,69.31
2022-12-05T10:58:39.007Z,69.69
2022-12-05T11:00:46.636Z,70.08
2022-12-05T11:02:49.139Z,69.93
2022-12-05T11:04:50.968Z,69.55
2022-12-05T11:06:56.049Z,69.79
2022-12-05T11:09:05.079Z,69.64
2022-12-05T11:11:21.393Z,69.34
2022-12-05T11:13:26.301Z,69.36
2022-12-05T11:15:30.261Z,69.05
2022-12-05T11:17:40.025Z,69.01
2022-12-05T11:19:41.718Z,68.99
2022-12-05T11:21:43.970Z,69.31
2022-12-05T11:23:45.937Z,68.79
2022-12-05T11:25:47.549Z,69.41
2022-12-05T11:27:49.114Z,69.17
2022-12-05T11:29:58.851Z,68.88
2022-12-05T11:32:01.222Z,69.37
2022-12-05T11:34:21.362Z,68.98
2022-12-05T11:36:24.485Z,69.33
2022-12-05T11:38:28.248Z,69.06
2022-12-05T11:40:51.809Z,69.10
2022-12-05T11:43:40.035Z,69.74
2022-12-05T11:45:56.849Z,70.01
2022-12-05T11:48:26.255Z,70.26
2022-12-05T11:50:42.255Z,70.04
2022-12-05T11:53:12.719Z,70.02
2022-12-05T11:55:23.016Z,70.14
2022-12-05T11:57:52.947Z,70.27
2022-12-05T12:00:33.401Z,69.69
2022-12-05T12:02:37.681Z,69.99
2022-12-05T12:04:47.707Z,70.16
2022-12-05T12:06:57.327Z,70.30
2022-12-05T12:09:17.533Z,69.97
2022-12-05T12:11:19.141Z,69.68
2022-12-05T12:13:58.551Z,70.60
2022-12-05T12:16:12.657Z,70.46
2022-12-05T12:19:05.115Z,70.64
2022-12-05T12:21:17.882Z,70.42
2022-12-05T12:23:56.301Z,70.49
2022-12-05T12:26:10.040Z,70.48
2022-12-05T12:28:46.383Z,70.23
2022-12-05T12:31:12.709Z,70.46
2022-12-05T12:33:17.064Z,70.89
2022-12-05T12:35:30.605Z,70.95
2022-12-05T12:37:35.479Z,70.56
2022-12-05T12:40:01.094Z,71.02
2022-12-05T12:42:25.230Z,71.45
2022-12-05T12:44:48.530Z,71.17
2022-12-05T12:46:56.299Z,71.11
2022-12-05T12:49:13.878Z,71.36
2022-12-05T12:51:16.080Z,71.27
2022-12-05T12:53:26.752Z,71.58
2022-12-05T12:55:40.575Z,71.24
2022-12-05T12:57:58.458Z,71.26
2022-12-05T13:00:31.765Z,70.94
2022-12-05T13:02:43.969Z,70.71
2022-12-05T13:04:59.545Z,71.08
2022-12-05T13:07:05.717Z,70.87
2022-12-05T13:09:23.597Z,70.67
2022-12-05T13:11:25.523Z,70.88
2022-12-05T13:13:43.589Z,71.09
2022-12-05T13:15:51.384Z,71.14
2022-12-05T13:17:54.348Z,71.46
2022-12-05T13:19:57.850Z,71.42
2022-12-05T13:21:59.605Z,71.46
2022-12-05T13:24:03.565Z,71.57
2022-12-05T13:26:10.324Z,71.95
2022-12-05T13:28:47.434Z,72.41
2022-12-05T13:31:01.444Z,71.89
2022-12-05T13:33:07.550Z,71.99
2022-12-05T13:35:48.029Z,71.41
2022-12-05T13:38:07.989Z,72.01
2022-12-05T13:40:48.048Z,72.37
2022-12-05T13:43:00.105Z,72.16
2022-12-05T13:45:04.891Z,72.42
2022-12-05T13:47:08.053Z,71.98
2022-12-05T13:49:20.696Z,72.62
2022-12-05T13:51:33.359Z,72.12
2022-12-05T13:53:39.999Z,72.54
2022-12-05T13:55:56.525Z,72.43
2022-12-05T13:57:59.977Z,72.60
2022-12-05T14:00:07.799Z,72.49
2022-12-05T14:02:41.694Z,72.62
2022-12-05T14:04:50.730Z,72.95
2022-12-05T14:06:58.867Z,73.64
2022-12-05T14:09:01.536Z,73.77
2022-12-05T14:11:09.647Z,73.82
2022-12-05T14:13:18.079Z,74.12
2022-12-05T14:15:34.634Z,73.38
2022-12-05T14:17:43.426Z,73.47
2022-12-05T14:20:10.899Z,73.27
2022-12-05T14:22:43.412Z,73.00
2022-12-05T14:24:50.838Z,73.22
2022-12-05T14:27:16.994Z,73.31
2022-12-05T14:29:51.830Z,73.17
2022-12-05T14:32:05.049Z,73.24
2022-12-05T14:34:15.723Z,73.08
2022-12-05T14:36:21.488Z,72.56
2022-12-05T14:38:31.360Z,73.04
2022-12-05T14:40:44.205Z,72.74
2022-12-05T14:43:04.881Z,73.06
2022-12-05T14:45:25.597Z,73.71
2022-12-05T14:47:30.111Z,73.57
2022-12-05T14:49:53.410Z,73.12
2022-12-05T14:51:58.266Z,73.05
2022-12-05T14:54:12.632Z,72.83
2022-12-05T14:56:25.861Z,73.44
2022-12-05T14:58:37.354Z,74.04
2022-12-05T15:00:41.558Z,73.93
2022-12-05T15:02:47.224Z,73.84
2022-12-05T15:05:02.566Z,74.26
2022-12-05T15:07:18.480Z,73.89
2022-12-05T15:09:38.564Z,73.90
2022-12-05T15:11:40.431Z,73.82
2022-12-05T15:13:42.118Z,74.06
2022-12-05T15:15:48.221Z,73.85
2022-12-05T15:17:53.474Z,73.68
2022-12-05T15:20:05.434Z,73.97
2022-12-05T15:22:07.469Z,73.54
2022-12-05T15:24:17.344Z,73.41
2022-12-05T15:26:49.645Z,73.90
2022-12-05T15:28:59.404Z,74.20
2022-12-05T15:31:01.119Z,73.99
2022-12-05T15:33:03.103Z,73.97
2022-12-05T15:35:14.194Z,74.25
2022-12-05T15:37:19.999Z,74.60
2022-12-05T15:39:25.840Z,74.33
2022-12-05T15:41:28.054Z,74.20
2022-12-05T15:43:33.996Z,74.21
2022-12-05T15:45:35.807Z,74.30
2022-12-05T15:47:37.779Z,74.06
2022-12-05T15:49:39.375Z,74.25
2022-12-05T15:51:41.301Z,74.27
2022-12-05T15:53:52.989Z,74.04
2022-12-05T15:56:38.349Z,74.29
2022-12-05T15:58:42.327Z,74.24
2022-12-05T16:00:46.497Z,73.91
2022-12-05T16:02:51.436Z,74.27
2022-12-05T16:04:54.375Z,74.13
2022-12-05T16:06:56.838Z,73.95
2022-12-05T16:08:59.581Z,73.93
2022-12-05T16:11:08.717Z,73.61
2022-12-05T16:13:15.951Z,73.96
2022-12-05T16:15:26.249Z,73.91
2022-12-05T16:17:30.831Z,74.25
2022-12-05T16:19:32.815Z,74.29
2022-12-05T16:21:39.281Z,74.28
2022-12-05T16:23:43.443Z,73.99
2022-12-05T16:25:44.981Z,74.44
2022-12-05T16:28:03.067Z,74.58
2022-12-05T16:30:22.473Z,74.05
2022-12-05T16:32:25.131Z,74.26
2022-12-05T16:34:28.142Z,74.24
2022-12-05T16:36:30.245Z,73.75
2022-12-05T16:38:31.989Z,73.70
2022-12-05T16:40:33.722Z,74.40
2022-12-05T16:42:37.592Z,74.30
2022-12-05T16:44:48.481Z,74.22
2022-12-05T16:46:50.561Z,73.65
2022-12-05T16:49:21.662Z,74.72
2022-12-05T16:51:27.709Z,74.59
2022-12-05T16:53:32.077Z,74.37
2022-12-05T16:55:37.341Z,74.57
2022-12-05T16:57:39.050Z,75.01
2022-12-05T16:59:44.127Z,74.72
2022-12-05T17:01:45.794Z,75.17
2022-12-05T17:03:48.217Z,75.06
2022-12-05T17:05:50.803Z,74.89
2022-12-05T17:07:52.478Z,75.18
2022-12-05T17:09:54.097Z,75.04
2022-12-05T17:12:02.969Z,75.00
2022-12-05T17:14:04.618Z,75.88
2022-12-05T17:16:06.507Z,75.22
2022-12-05T17:18:31.573Z,75.64
2022-12-05T17:20:34.269Z,75.52
2022-12-05T17:22:35.951Z,75.49
2022-12-05T17:24:37.843Z,75.53
2022-12-05T17:26:39.470Z,75.79
2022-12-05T17:28:41.331Z,75.98
2022-12-05T17:30:43.074Z,75.78
2022-12-05T17:32:44.798Z,75.66
2022-12-05T17:34:46.430Z,76.23
2022-12-05T17:36:48.332Z,75.95
2022-12-05T17:38:49.998Z,75.86
2022-12-05T17:40:51.683Z,75.93
2022-12-05T17:42:53.339Z,75.77
2022-12-05T17:44:54.970Z,75.62
2022-12-05T17:46:56.648Z,75.25
2022-12-05T17:48:58.340Z,75.53
2022-12-05T17:51:00.756Z,75.68
2022-12-05T17:53:07.346Z,75.22
2022-12-05T17:55:17.358Z,75.22
2022-12-05T17:57:18.949Z,74.68
2022-12-05T17:59:20.621Z,75.14
2022-12-05T18:01:22.289Z,74.54
2022-12-05T18:03:24.078Z,74.82
2022-12-05T18:05:25.914Z,74.93
2022-12-05T18:07:27.662Z,74.65
2022-12-05T18:09:29.354Z,74.56
2022-12-05T18:11:31.031Z,74.18
2022-12-05T18:13:33.623Z,74.19
2022-12-05T18:15:40.917Z,74.18
2022-12-05T18:17:44.485Z,73.89
2022-12-05T18:19:46.087Z,73.64
2022-12-05T18:21:47.726Z,73.36
2022-12-05T18:23:49.440Z,73.33
2022-12-05T18:25:59.149Z,73.40
2022-12-05T18:28:00.839Z,73.05
2022-12-05T18:30:03.752Z,72.70
2022-12-05T18:32:05.691Z,72.82
2022-12-05T18:34:07.787Z,73.03
2022-12-05T18:36:11.716Z,72.60
2022-12-05T18:38:13.249Z,72.63
2022-12-05T18:40:14.867Z,73.24
2022-12-05T18:42:16.527Z,72.96
2022-12-05T18:44:18.249Z,73.13
2022-12-05T18:46:19.982Z,72.59
2022-12-05T18:48:38.756Z,72.98
2022-12-05T18:50:42.489Z,72.45
2022-12-05T18:52:44.030Z,72.73
2022-12-05T18:54:53.841Z,72.68
2022-12-05T18:56:59.448Z,72.16
2022-12-05T18:59:03.951Z,72.61
2022-12-05T19:01:10.664Z,72.42
2022-12-05T19:03:12.313Z,72.62
2022-12-05T19:05:14.028Z,72.47
2022-12-05T19:07:15.656Z,72.25
2022-12-05T19:09:19.196Z,72.60
2022-12-05T19:11:20.902Z,72.13
2022-12-05T19:13:22.605Z,72.26
2022-12-05T19:15:24.838Z,72.65
2022-12-05T19:17:26.418Z,72.03
2022-12-05T19:19:28.491Z,72.54
2022-12-05T19:21:31.425Z,72.09
2022-12-05T19:23:34.610Z,71.84
2022-12-05T19:25:36.211Z,71.99
2022-12-05T19:27:38.089Z,72.28
2022-12-05T19:29:39.723Z,71.86
2022-12-05T19:31:41.951Z,71.94
2022-12-05T19:33:45.470Z,72.20
2022-12-05T19:35:47.180Z,71.81
2022-12-05T19:37:48.864Z,71.79
2022-12-05T19:39:52.013Z,72.08
2022-12-05T19:41:55.292Z,71.79
2022-12-05T19:44:01.853Z,71.80
2022-12-05T19:46:21.639Z,71.59
2022-12-05T19:48:24.083Z,71.88
2022-12-05T19:50:25.849Z,71.94
2022-12-05T19:52:27.545Z,71.59
2022-12-05T19:54:29.138Z,71.50
2022-12-05T19:56:32.067Z,71.52
2022-12-05T19:58:35.375Z,71.75
2022-12-05T20:00:36.983Z,71.36
2022-12-05T20:02:40.431Z,71.86
2022-12-05T20:04:43.386Z,71.96
2022-12-05T20:06:47.374Z,71.74
2022-12-05T20:08:51.180Z,72.04
2022-12-05T20:10:53.351Z,71.79
2022-12-05T20:12:55.224Z,71.44
2022-12-05T20:14:57.692Z,71.43
2022-12-05T20:16:59.407Z,71.23
2022-12-05T20:19:01.287Z,71.29
2022-12-05T20:21:04.682Z,71.50
2022-12-05T20:23:06.395Z,71.69
2022-12-05T20:25:08.514Z,71.52
2022-12-05T20:27:10.137Z,71.77
2022-12-05T20:29:11.917Z,71.62
2022-12-05T20:31:22.046Z,71.45
2022-12-05T20:33:23.721Z,71.33
2022-12-05T20:35:25.373Z,71.17
2022-12-05T20:37:29.929Z,71.41
2022-12-05T20:39:34.148Z,70.65
2022-12-05T20:41:35.987Z,70.72
2022-12-05T20:43:38.242Z,71.11
2022-12-05T20:45:39.853Z,71.04
2022-12-05T20:47:41.500Z,70.49
2022-12-05T20:49:43.231Z,70.81
2022-12-05T20:51:46.210Z,70.85
2022-12-05T20:53:48.657Z,71.26
2022-12-05T20:55:50.330Z,70.98
2022-12-05T20:57:51.994Z,71.23
2022-12-05T20:59:53.554Z,71.27
2022-12-05T21:01:55.316Z,71.08
2022-12-05T21:03:57.197Z,70.94
2022-12-05T21:05:58.989Z,70.64
2022-12-05T21:08:00.630Z,70.92
2022-12-05T21:10:07.930Z,70.98
2022-12-05T21:12:10.123Z,71.38
2022-12-05T21:14:12.045Z,71.46
2022-12-05T21:16:17.000Z,71.14
2022-12-05T21:18:18.604Z,70.75
2022-12-05T21:20:20.238Z,71.34
2022-12-05T21:22:21.984Z,71.83
2022-12-05T21:24:23.724Z,71.18
2022-12-05T21:26:27.228Z,71.40
2022-12-05T21:28:31.509Z,71.16
2022-12-05T21:30:34.556Z,71.04
2022-12-05T21:32:36.174Z,71.14
2022-12-05T21:34:38.005Z,71.04
2022-12-05T21:36:39.689Z,70.84
2022-12-05T21:38:41.460Z,70.57
2022-12-05T21:40:43.013Z,70.62
2022-12-05T21:42:44.660Z,71.08
2022-12-05T21:44:46.381Z,71.02
2022-12-05T21:46:48.973Z,71.06
2022-12-05T21:48:50.821Z,70.48
2022-12-05T21:50:52.710Z,70.90
2022-12-05T21:52:54.321Z,70.88
2022-12-05T21:54:55.928Z,70.77
2022-12-05T21:56:57.563Z,70.75
2022-12-05T21:58:59.239Z,70.13
2022-12-05T22:01:01.024Z,70.10
2022-12-05T22:03:02.892Z,70.56
2022-12-05T22:05:05.472Z,70.14
2022-12-05T22:07:07.168Z,69.79
2022-12-05T22:09:08.786Z,69.83
2022-12-05T22:11:13.280Z,69.93
2022-12-05T22:13:15.182Z,70.11
2022-12-05T22:15:16.911Z,69.72
2022-12-05T22:17:18.613Z,70.05
2022-12-05T22:19:20.340Z,69.62
2022-12-05T22:21:22.081Z,69.54
2022-12-05T22:23:24.380Z,70.15
2022-12-05T22:25:26.018Z,69.64
2022-12-05T22:27:30.072Z,70.01
2022-12-05T22:29:31.746Z,69.62
2022-12-05T22:31:33.642Z,69.84
2022-12-05T22:33:36.728Z,69.85
2022-12-05T22:35:38.490Z,69.94
2022-12-05T22:37:40.169Z,69.41
2022-12-05T22:39:41.779Z,69.59
2022-12-05T22:41:43.367Z,69.35
2022-12-05T22:43:46.751Z,69.63
2022-12-05T22:45:48.623Z,69.05
2022-12-05T22:47:50.234Z,69.23
2022-12-05T22:49:52.120Z,69.45
2022-12-05T22:51:53.750Z,69.39
2022-12-05T22:53:55.940Z,69.27
2022-12-05T22:56:04.748Z,69.38
2022-12-05T22:58:06.335Z,68.94
2022-12-05T23:00:08.635Z,68.93
2022-12-05T23:02:10.249Z,68.61
2022-12-05T23:04:12.004Z,68.89
2022-12-05T23:06:15.832Z,69.04
2022-12-05T23:08:17.760Z,68.85
2022-12-05T23:10:19.409Z,68.42
2022-12-05T23:12:20.971Z,68.63
2022-12-05T23:14:22.588Z,68.66
2022-12-05T23:16:26.422Z,68.11
2022-12-05T23:18:28.043Z,68.26
2022-12-05T23:20:29.700Z,68.81
2022-12-05T23:22:31.562Z,69.21
2022-12-05T23:24:33.261Z,69.19
2022-12-05T23:26:37.997Z,69.17
2022-12-05T23:28:39.655Z,68.86
2022-12-05T23:30:41.276Z,68.69
2022-12-05T23:32:42.903Z,68.67
2022-12-05T23:34:44.532Z,68.51
2022-12-05T23:36:46.233Z,69.13
2022-12-05T23:38:48.154Z,69.18
2022-12-05T23:41:13.578Z,68.71
2022-12-05T23:43:15.227Z,69.22
2022-12-05T23:45:16.969Z,69.24
2022-12-05T23:47:18.946Z,69.06
2022-12-05T23:49:20.785Z,69.32
2022-12-05T23:51:27.751Z,69.11
2022-12-05T23:53:30.852Z,68.98
2022-12-05T23:55:34.446Z,69.06
2022-12-05T23:57:36.183Z,68.71
2022-12-05T23:59:37.839Z,69.14
